createdAt,value
2022-11-29T00:02:41.842Z,89.97
2022-11-29T00:07:44.624Z,89.27
2022-11-29T00:12:48.404Z,88.74
2022-11-29T00:17:52.369Z,87.93
2022-11-29T00:22:54.974Z,87.71
2022-11-29T00:27:57.694Z,90.28
2022-11-29T00:33:03.060Z,88.02
2022-11-29T00:38:06.126Z,88.79
2022-11-29T00:43:09.933Z,91.57
2022-11-29T00:54:29.062Z,87.32
2022-11-29T00:59:31.658Z,88.58
2022-11-29T01:04:34.245Z,87.97
2022-11-29T01:09:38.202Z,93.31
2022-11-29T01:14:40.874Z,92.16
2022-11-29T01:19:49.334Z,91.06
2022-11-29T01:24:54.627Z,91.12
2022-11-29T01:30:00.185Z,93.14
2022-11-29T01:35:03.109Z,96.01
2022-11-29T01:40:08.723Z,94.60
2022-11-29T01:45:23.712Z,91.77
2022-11-29T01:50:26.311Z,90.81
2022-11-29T01:55:30.435Z,90.64
2022-11-29T02:00:33.490Z,91.13
2022-11-29T02:05:36.686Z,90.82
2022-11-29T02:10:57.878Z,100.00
2022-11-29T02:16:04.884Z,99.11
2022-11-29T02:21:32.473Z,97.34
2022-11-29T02:27:10.347Z,95.82
2022-11-29T02:32:52.651Z,94.76
2022-11-29T02:38:13.672Z,93.34
2022-11-29T02:43:33.226Z,95.45
2022-11-29T02:48:53.868Z,94.29
2022-11-29T02:54:04.419Z,93.58
2022-11-29T02:59:16.825Z,93.28
2022-11-29T03:04:32.169Z,93.94
2022-11-29T03:09:40.532Z,94.69
2022-11-29T03:14:51.429Z,94.41
2022-11-29T03:20:11.798Z,93.52
2022-11-29T03:25:22.993Z,93.58
2022-11-29T03:30:25.661Z,93.71
2022-11-29T03:35:37.598Z,93.66
2022-11-29T03:40:45.947Z,94.03
2022-11-29T03:45:54.795Z,94.36
2022-11-29T03:51:04.482Z,94.45
2022-11-29T03:56:26.937Z,94.40
2022-11-29T04:02:01.577Z,96.84
2022-11-29T04:07:21.942Z,94.50
2022-11-29T04:12:54.466Z,94.50
2022-11-29T04:18:24.734Z,93.52
2022-11-29T04:24:04.892Z,96.08
2022-11-29T04:29:17.346Z,96.26
2022-11-29T04:34:39.246Z,97.24
2022-11-29T04:40:10.365Z,98.76
2022-11-29T04:45:45.376Z,96.65
2022-11-29T04:50:55.010Z,96.88
2022-11-29T04:56:05.197Z,100.00
2022-11-29T05:01:18.814Z,100.00
2022-11-29T05:06:28.629Z,97.76
2022-11-29T05:11:44.420Z,96.73
2022-11-29T05:16:53.940Z,97.72
2022-11-29T05:22:05.974Z,97.12
2022-11-29T05:27:23.821Z,94.57
2022-11-29T05:32:34.644Z,94.11
2022-11-29T05:37:45.195Z,94.34
2022-11-29T05:43:13.226Z,97.46
2022-11-29T05:48:25.741Z,95.49
2022-11-29T05:53:35.759Z,96.02
2022-11-29T05:58:47.370Z,95.15
2022-11-29T06:03:59.847Z,97.51
2022-11-29T06:09:10.964Z,100.00
2022-11-29T06:14:27.084Z,100.00
2022-11-29T06:19:57.499Z,100.00
2022-11-29T06:25:18.483Z,100.00
2022-11-29T06:30:25.005Z,99.37
2022-11-29T06:35:43.909Z,97.96
2022-11-29T06:40:47.057Z,96.47
2022-11-29T06:45:53.038Z,96.62
2022-11-29T06:51:04.445Z,97.12
2022-11-29T06:56:19.382Z,95.63
2022-11-29T07:01:30.070Z,95.31
2022-11-29T07:06:35.796Z,95.33
2022-11-29T07:11:39.351Z,94.24
2022-11-29T07:16:57.139Z,94.63
2022-11-29T07:22:09.797Z,95.55
2022-11-29T07:27:20.392Z,97.64
2022-11-29T07:32:29.851Z,96.84
2022-11-29T07:37:40.978Z,95.50
2022-11-29T07:42:56.519Z,94.04
2022-11-29T07:47:59.899Z,95.65
2022-11-29T07:53:04.589Z,95.85
2022-11-29T07:58:07.177Z,93.96
2022-11-29T08:03:10.279Z,94.51
2022-11-29T08:08:15.018Z,95.37
2022-11-29T08:13:20.018Z,99.80
2022-11-29T08:18:22.559Z,96.32
2022-11-29T08:23:26.464Z,94.97
2022-11-29T08:28:29.168Z,95.48
2022-11-29T08:33:32.203Z,94.72
2022-11-29T08:38:36.115Z,93.28
2022-11-29T08:43:38.722Z,93.21
2022-11-29T08:48:41.364Z,92.92
2022-11-29T08:53:51.633Z,92.38
2022-11-29T08:58:54.332Z,92.77
2022-11-29T09:04:07.609Z,95.75
2022-11-29T09:09:14.208Z,92.17
2022-11-29T09:14:17.884Z,90.65
2022-11-29T09:19:20.405Z,92.18
2022-11-29T09:24:24.311Z,93.12
2022-11-29T09:29:26.910Z,92.25
2022-11-29T09:34:29.485Z,93.57
2022-11-29T09:39:33.399Z,93.57
2022-11-29T09:44:48.455Z,92.91
2022-11-29T09:50:03.654Z,91.84
2022-11-29T09:55:33.154Z,92.41
2022-11-29T10:00:43.985Z,91.61
2022-11-29T10:05:50.212Z,91.41
2022-11-29T10:10:57.238Z,88.92
2022-11-29T10:16:06.318Z,88.43
2022-11-29T10:21:15.227Z,87.54
2022-11-29T10:26:20.718Z,88.17
2022-11-29T10:31:27.041Z,89.30
2022-11-29T10:36:36.400Z,90.20
2022-11-29T10:41:40.297Z,90.76
2022-11-29T10:46:43.017Z,88.80
2022-11-29T10:51:46.739Z,91.00
2022-11-29T10:56:50.876Z,91.42
2022-11-29T11:01:53.856Z,88.23
2022-11-29T11:07:00.927Z,89.19
2022-11-29T11:12:08.473Z,88.51
2022-11-29T11:17:26.138Z,87.78
2022-11-29T11:22:31.238Z,88.10
2022-11-29T11:27:39.799Z,87.25
2022-11-29T11:33:06.733Z,87.30
2022-11-29T11:38:17.905Z,90.31
2022-11-29T11:43:23.901Z,87.61
2022-11-29T11:48:26.878Z,86.25
2022-11-29T11:53:34.225Z,87.46
2022-11-29T11:58:40.756Z,88.79
2022-11-29T12:03:55.752Z,90.67
2022-11-29T12:09:04.135Z,88.80
2022-11-29T12:14:11.290Z,87.07
2022-11-29T12:19:20.476Z,88.65
2022-11-29T12:24:30.199Z,89.07
2022-11-29T12:29:35.984Z,88.80
2022-11-29T12:34:53.236Z,88.04
2022-11-29T12:39:58.538Z,86.80
2022-11-29T12:45:21.278Z,88.15
2022-11-29T12:50:34.321Z,86.95
2022-11-29T12:55:46.019Z,86.06
2022-11-29T13:00:58.809Z,87.16
2022-11-29T13:06:16.327Z,85.76
2022-11-29T13:11:24.690Z,86.65
2022-11-29T13:16:41.431Z,85.54
2022-11-29T13:21:51.939Z,85.21
2022-11-29T13:26:56.415Z,84.65
2022-11-29T13:32:00.917Z,87.83
2022-11-29T13:37:14.011Z,86.03
2022-11-29T13:42:23.441Z,85.56
2022-11-29T13:47:27.642Z,85.22
2022-11-29T13:52:39.633Z,85.22
2022-11-29T13:58:15.050Z,84.06
2022-11-29T14:03:40.811Z,83.66
2022-11-29T14:09:19.986Z,85.19
2022-11-29T14:14:28.804Z,84.16
2022-11-29T14:19:34.386Z,83.86
2022-11-29T14:24:41.500Z,84.29
2022-11-29T14:29:54.061Z,84.42
2022-11-29T14:35:04.953Z,86.31
2022-11-29T14:40:21.790Z,86.08
2022-11-29T14:45:30.432Z,86.82
2022-11-29T14:50:36.945Z,88.68
2022-11-29T14:55:39.782Z,88.10
2022-11-29T15:01:10.661Z,87.51
2022-11-29T15:06:23.204Z,87.38
2022-11-29T15:11:35.586Z,88.07
2022-11-29T15:16:53.762Z,87.76
2022-11-29T15:22:07.327Z,88.18
2022-11-29T15:27:14.105Z,88.29
2022-11-29T15:32:24.157Z,87.69
2022-11-29T15:37:45.273Z,88.08
2022-11-29T15:42:53.296Z,88.74
2022-11-29T15:47:57.095Z,90.88
2022-11-29T15:53:07.180Z,89.53
2022-11-29T15:58:13.851Z,89.74
2022-11-29T16:03:22.452Z,91.59
2022-11-29T16:08:30.475Z,94.67
2022-11-29T16:13:37.644Z,93.41
2022-11-29T16:18:42.796Z,92.46
2022-11-29T16:23:46.820Z,90.81
2022-11-29T16:28:51.748Z,91.31
2022-11-29T16:33:54.336Z,89.25
2022-11-29T16:39:07.919Z,89.88
2022-11-29T16:44:46.994Z,90.23
2022-11-29T16:50:10.816Z,96.65
2022-11-29T16:55:16.599Z,96.39
2022-11-29T17:00:31.244Z,92.62
2022-11-29T17:05:33.635Z,91.35
2022-11-29T17:10:37.760Z,90.92
2022-11-29T17:15:40.342Z,91.55
2022-11-29T17:20:42.896Z,92.21
2022-11-29T17:25:46.876Z,92.42
2022-11-29T17:30:49.518Z,91.74
2022-11-29T17:35:52.117Z,91.65
2022-11-29T17:40:56.028Z,91.58
2022-11-29T17:46:07.712Z,93.45
2022-11-29T17:51:36.018Z,93.84
2022-11-29T17:56:37.083Z,92.97
2022-11-29T18:01:39.775Z,93.15
2022-11-29T18:06:45.881Z,92.86
2022-11-29T18:11:50.433Z,92.83
2022-11-29T18:16:53.425Z,93.04
2022-11-29T18:21:56.036Z,93.00
2022-11-29T18:26:59.910Z,93.41
2022-11-29T18:32:02.472Z,92.19
2022-11-29T18:37:05.045Z,92.40
2022-11-29T18:42:08.956Z,92.29
2022-11-29T18:47:11.703Z,92.45
2022-11-29T18:52:14.358Z,92.79
2022-11-29T18:57:18.277Z,92.69
2022-11-29T19:02:20.891Z,93.63
2022-11-29T19:07:23.541Z,96.24
2022-11-29T19:12:27.547Z,93.90
2022-11-29T19:17:30.123Z,93.20
2022-11-29T19:22:32.706Z,95.22
2022-11-29T19:27:36.638Z,96.86
2022-11-29T19:32:39.208Z,93.88
2022-11-29T19:37:41.976Z,93.02
2022-11-29T19:42:48.418Z,93.17
2022-11-29T19:47:51.048Z,92.81
2022-11-29T19:52:53.581Z,93.67
2022-11-29T19:57:57.650Z,94.20
2022-11-29T20:03:00.307Z,92.47
2022-11-29T20:08:02.969Z,92.17
2022-11-29T20:13:07.738Z,98.29
2022-11-29T20:18:10.479Z,99.78
2022-11-29T20:23:13.023Z,93.32
2022-11-29T20:28:16.950Z,92.77
2022-11-29T20:33:23.511Z,91.67
2022-11-29T20:38:35.023Z,92.56
2022-11-29T20:43:45.021Z,91.90
2022-11-29T20:48:47.938Z,91.75
2022-11-29T20:53:50.521Z,91.56
2022-11-29T20:58:54.446Z,91.99
2022-11-29T21:03:57.069Z,91.50
2022-11-29T21:08:59.619Z,91.35
2022-11-29T21:14:05.833Z,92.01
2022-11-29T21:19:17.343Z,93.21
2022-11-29T21:24:32.979Z,95.14
2022-11-29T21:29:37.919Z,93.38
2022-11-29T21:34:44.378Z,91.22
2022-11-29T21:39:53.279Z,92.76
2022-11-29T21:45:01.865Z,92.09
2022-11-29T21:50:08.997Z,92.52
2022-11-29T21:55:13.073Z,93.04
2022-11-29T22:00:18.209Z,95.31
2022-11-29T22:05:20.922Z,92.66
2022-11-29T22:10:24.521Z,91.52
2022-11-29T22:15:29.539Z,91.80
2022-11-29T22:20:32.137Z,91.88
2022-11-29T22:25:34.735Z,91.65
2022-11-29T22:30:38.685Z,91.55
2022-11-29T22:35:43.932Z,93.47
2022-11-29T22:40:46.477Z,93.79
2022-11-29T22:45:50.347Z,93.36
2022-11-29T22:50:52.925Z,93.20
2022-11-29T22:55:58.440Z,92.52
2022-11-29T23:01:07.267Z,91.06
2022-11-29T23:06:11.371Z,92.59
2022-11-29T23:11:15.880Z,93.43
2022-11-29T23:16:20.709Z,91.79
2022-11-29T23:21:25.568Z,94.04
2022-11-29T23:26:29.721Z,95.00
2022-11-29T23:31:34.299Z,93.87
2022-11-29T23:36:36.991Z,92.36
2022-11-29T23:41:39.571Z,91.71
2022-11-29T23:46:43.547Z,91.78
2022-11-29T23:51:46.127Z,90.75
2022-11-29T23:56:48.635Z,90.95
